sensor_id;sensor_type;location;lat;lon;timestamp;temperature;humidity
78536;SHT31;67829;51.968;5.684;2023-12-20T00:00:54;9.0;74.3
78536;SHT31;67829;51.968;5.684;2023-12-20T00:03:22;9.0;74.2
78536;SHT31;67829;51.968;5.684;2023-12-20T00:05:52;9.0;74.2
78536;SHT31;67829;51.968;5.684;2023-12-20T00:08:22;9.0;74.4
78536;SHT31;67829;51.968;5.684;2023-12-20T00:10:50;9.0;74.7
78536;SHT31;67829;51.968;5.684;2023-12-20T00:13:18;9.0;74.6
78536;SHT31;67829;51.968;5.684;2023-12-20T00:15:47;9.0;74.4
78536;SHT31;67829;51.968;5.684;2023-12-20T00:18:15;9.0;74.1
78536;SHT31;67829;51.968;5.684;2023-12-20T00:20:44;9.0;74.0
78536;SHT31;67829;51.968;5.684;2023-12-20T00:23:14;9.0;73.9
78536;SHT31;67829;51.968;5.684;2023-12-20T00:25:45;8.9;73.9
78536;SHT31;67829;51.968;5.684;2023-12-20T00:28:13;8.9;73.9
78536;SHT31;67829;51.968;5.684;2023-12-20T00:30:41;8.9;73.8
78536;SHT31;67829;51.968;5.684;2023-12-20T00:33:10;8.9;73.8
78536;SHT31;67829;51.968;5.684;2023-12-20T00:35:39;8.8;73.7
78536;SHT31;67829;51.968;5.684;2023-12-20T00:38:07;8.8;73.1
78536;SHT31;67829;51.968;5.684;2023-12-20T00:40:38;8.8;73.1
78536;SHT31;67829;51.968;5.684;2023-12-20T00:43:06;8.7;73.1
78536;SHT31;67829;51.968;5.684;2023-12-20T00:45:36;8.7;73.0
78536;SHT31;67829;51.968;5.684;2023-12-20T00:48:06;8.7;72.9
78536;SHT31;67829;51.968;5.684;2023-12-20T00:50:35;8.6;73.1
78536;SHT31;67829;51.968;5.684;2023-12-20T00:53:04;8.6;73.3
78536;SHT31;67829;51.968;5.684;2023-12-20T00:55:32;8.6;73.3
78536;SHT31;67829;51.968;5.684;2023-12-20T00:58:01;8.5;73.4
78536;SHT31;67829;51.968;5.684;2023-12-20T01:00:29;8.5;73.5
78536;SHT31;67829;51.968;5.684;2023-12-20T01:02:58;8.5;73.4
78536;SHT31;67829;51.968;5.684;2023-12-20T01:05:26;8.4;73.5
78536;SHT31;67829;51.968;5.684;2023-12-20T01:07:55;8.4;73.8
78536;SHT31;67829;51.968;5.684;2023-12-20T01:10:24;8.4;74.0
78536;SHT31;67829;51.968;5.684;2023-12-20T01:12:54;8.4;74.1
78536;SHT31;67829;51.968;5.684;2023-12-20T01:15:23;8.3;74.0
78536;SHT31;67829;51.968;5.684;2023-12-20T01:17:52;8.3;74.0
78536;SHT31;67829;51.968;5.684;2023-12-20T01:20:20;8.3;73.9
78536;SHT31;67829;51.968;5.684;2023-12-20T01:22:49;8.3;74.0
78536;SHT31;67829;51.968;5.684;2023-12-20T01:25:17;8.3;73.9
78536;SHT31;67829;51.968;5.684;2023-12-20T01:27:46;8.2;73.7
78536;SHT31;67829;51.968;5.684;2023-12-20T01:30:15;8.2;74.0
78536;SHT31;67829;51.968;5.684;2023-12-20T01:32:44;8.2;74.0
78536;SHT31;67829;51.968;5.684;2023-12-20T01:35:13;8.2;74.1
78536;SHT31;67829;51.968;5.684;2023-12-20T01:37:42;8.2;74.0
78536;SHT31;67829;51.968;5.684;2023-12-20T01:40:11;8.2;74.0
78536;SHT31;67829;51.968;5.684;2023-12-20T01:42:39;8.1;74.2
78536;SHT31;67829;51.968;5.684;2023-12-20T01:45:09;8.1;74.2
78536;SHT31;67829;51.968;5.684;2023-12-20T01:47:38;8.1;74.2
78536;SHT31;67829;51.968;5.684;2023-12-20T01:50:08;8.1;74.3
78536;SHT31;67829;51.968;5.684;2023-12-20T01:52:39;8.1;74.3
78536;SHT31;67829;51.968;5.684;2023-12-20T01:55:08;8.1;74.2
78536;SHT31;67829;51.968;5.684;2023-12-20T01:57:40;8.1;74.3
78536;SHT31;67829;51.968;5.684;2023-12-20T02:00:10;8.1;74.4
78536;SHT31;67829;51.968;5.684;2023-12-20T02:02:41;8.1;74.6
78536;SHT31;67829;51.968;5.684;2023-12-20T02:05:11;8.1;74.7
78536;SHT31;67829;51.968;5.684;2023-12-20T02:07:40;8.1;74.8
78536;SHT31;67829;51.968;5.684;2023-12-20T02:10:09;8.1;75.1
78536;SHT31;67829;51.968;5.684;2023-12-20T02:12:40;8.1;75.1
78536;SHT31;67829;51.968;5.684;2023-12-20T02:15:09;8.1;74.9
78536;SHT31;67829;51.968;5.684;2023-12-20T02:17:38;8.2;74.7
78536;SHT31;67829;51.968;5.684;2023-12-20T02:20:09;8.2;74.5
78536;SHT31;67829;51.968;5.684;2023-12-20T02:22:39;8.2;74.5
78536;SHT31;67829;51.968;5.684;2023-12-20T02:25:08;8.2;74.3
78536;SHT31;67829;51.968;5.684;2023-12-20T02:27:38;8.2;74.4
78536;SHT31;67829;51.968;5.684;2023-12-20T02:30:10;8.3;74.9
78536;SHT31;67829;51.968;5.684;2023-12-20T02:32:39;8.3;75.0
78536;SHT31;67829;51.968;5.684;2023-12-20T02:35:08;8.3;75.1
78536;SHT31;67829;51.968;5.684;2023-12-20T02:37:37;8.3;75.0
78536;SHT31;67829;51.968;5.684;2023-12-20T02:40:06;8.4;74.9
78536;SHT31;67829;51.968;5.684;2023-12-20T02:42:36;8.4;74.9
78536;SHT31;67829;51.968;5.684;2023-12-20T02:45:06;8.4;75.0
78536;SHT31;67829;51.968;5.684;2023-12-20T02:47:34;8.4;74.9
78536;SHT31;67829;51.968;5.684;2023-12-20T02:50:03;8.5;74.8
78536;SHT31;67829;51.968;5.684;2023-12-20T02:52:32;8.5;74.7
78536;SHT31;67829;51.968;5.684;2023-12-20T02:55:00;8.5;74.5
78536;SHT31;67829;51.968;5.684;2023-12-20T02:57:28;8.5;74.0
78536;SHT31;67829;51.968;5.684;2023-12-20T02:59:58;8.5;73.7
78536;SHT31;67829;51.968;5.684;2023-12-20T03:02:27;8.5;73.5
78536;SHT31;67829;51.968;5.684;2023-12-20T03:04:56;8.5;73.6
78536;SHT31;67829;51.968;5.684;2023-12-20T03:07:26;8.5;73.6
78536;SHT31;67829;51.968;5.684;2023-12-20T03:09:55;8.5;73.6
78536;SHT31;67829;51.968;5.684;2023-12-20T03:12:25;8.5;73.5
78536;SHT31;67829;51.968;5.684;2023-12-20T03:14:53;8.4;73.7
78536;SHT31;67829;51.968;5.684;2023-12-20T03:17:22;8.4;73.8
78536;SHT31;67829;51.968;5.684;2023-12-20T03:19:50;8.4;74.1
78536;SHT31;67829;51.968;5.684;2023-12-20T03:22:19;8.4;74.4
78536;SHT31;67829;51.968;5.684;2023-12-20T03:24:48;8.4;74.4
78536;SHT31;67829;51.968;5.684;2023-12-20T03:27:16;8.4;74.3
78536;SHT31;67829;51.968;5.684;2023-12-20T03:29:44;8.4;74.3
78536;SHT31;67829;51.968;5.684;2023-12-20T03:32:13;8.4;74.5
78536;SHT31;67829;51.968;5.684;2023-12-20T03:34:41;8.4;74.7
78536;SHT31;67829;51.968;5.684;2023-12-20T03:37:10;8.4;74.7
78536;SHT31;67829;51.968;5.684;2023-12-20T03:39:38;8.4;74.5
78536;SHT31;67829;51.968;5.684;2023-12-20T03:42:07;8.4;74.0
78536;SHT31;67829;51.968;5.684;2023-12-20T03:44:38;8.4;73.9
78536;SHT31;67829;51.968;5.684;2023-12-20T03:47:07;8.4;74.0
78536;SHT31;67829;51.968;5.684;2023-12-20T03:49:38;8.4;73.8
78536;SHT31;67829;51.968;5.684;2023-12-20T03:52:06;8.4;73.7
78536;SHT31;67829;51.968;5.684;2023-12-20T03:54:35;8.4;73.6
78536;SHT31;67829;51.968;5.684;2023-12-20T03:57:04;8.4;73.8
78536;SHT31;67829;51.968;5.684;2023-12-20T03:59:37;8.4;74.0
78536;SHT31;67829;51.968;5.684;2023-12-20T04:02:06;8.4;74.0
78536;SHT31;67829;51.968;5.684;2023-12-20T04:04:34;8.4;73.6
78536;SHT31;67829;51.968;5.684;2023-12-20T04:07:03;8.4;73.6
78536;SHT31;67829;51.968;5.684;2023-12-20T04:09:31;8.4;73.6
78536;SHT31;67829;51.968;5.684;2023-12-20T04:12:00;8.4;73.6
78536;SHT31;67829;51.968;5.684;2023-12-20T04:14:28;8.4;73.8
78536;SHT31;67829;51.968;5.684;2023-12-20T04:16:57;8.4;74.1
78536;SHT31;67829;51.968;5.684;2023-12-20T04:19:26;8.4;74.2
78536;SHT31;67829;51.968;5.684;2023-12-20T04:21:55;8.4;74.0
78536;SHT31;67829;51.968;5.684;2023-12-20T04:24:23;8.4;73.9
78536;SHT31;67829;51.968;5.684;2023-12-20T04:26:52;8.4;73.9
78536;SHT31;67829;51.968;5.684;2023-12-20T04:29:20;8.4;74.0
78536;SHT31;67829;51.968;5.684;2023-12-20T04:31:49;8.4;74.2
78536;SHT31;67829;51.968;5.684;2023-12-20T04:34:18;8.4;74.1
78536;SHT31;67829;51.968;5.684;2023-12-20T04:36:47;8.5;74.0
78536;SHT31;67829;51.968;5.684;2023-12-20T04:39:15;8.5;74.2
78536;SHT31;67829;51.968;5.684;2023-12-20T04:41:44;8.5;74.1
78536;SHT31;67829;51.968;5.684;2023-12-20T04:44:14;8.5;74.0
78536;SHT31;67829;51.968;5.684;2023-12-20T04:46:42;8.6;74.1
78536;SHT31;67829;51.968;5.684;2023-12-20T04:49:13;8.6;74.2
78536;SHT31;67829;51.968;5.684;2023-12-20T04:51:41;8.6;73.9
78536;SHT31;67829;51.968;5.684;2023-12-20T04:54:10;8.7;73.8
78536;SHT31;67829;51.968;5.684;2023-12-20T04:56:40;8.7;73.7
78536;SHT31;67829;51.968;5.684;2023-12-20T04:59:08;8.7;73.6
78536;SHT31;67829;51.968;5.684;2023-12-20T05:01:36;8.7;73.4
78536;SHT31;67829;51.968;5.684;2023-12-20T05:04:05;8.8;73.3
78536;SHT31;67829;51.968;5.684;2023-12-20T05:06:34;8.8;72.9
78536;SHT31;67829;51.968;5.684;2023-12-20T05:09:02;8.8;72.9
78536;SHT31;67829;51.968;5.684;2023-12-20T05:11:31;8.8;73.0
78536;SHT31;67829;51.968;5.684;2023-12-20T05:13:59;8.8;73.0
78536;SHT31;67829;51.968;5.684;2023-12-20T05:16:28;8.8;72.9
78536;SHT31;67829;51.968;5.684;2023-12-20T05:18:56;8.9;72.7
78536;SHT31;67829;51.968;5.684;2023-12-20T05:21:27;8.9;72.6
78536;SHT31;67829;51.968;5.684;2023-12-20T05:23:57;8.9;72.5
78536;SHT31;67829;51.968;5.684;2023-12-20T05:26:25;8.9;72.1
78536;SHT31;67829;51.968;5.684;2023-12-20T05:28:56;8.9;72.1
78536;SHT31;67829;51.968;5.684;2023-12-20T05:31:24;9.0;71.8
78536;SHT31;67829;51.968;5.684;2023-12-20T05:33:53;9.0;71.7
78536;SHT31;67829;51.968;5.684;2023-12-20T05:36:21;9.0;72.0
78536;SHT31;67829;51.968;5.684;2023-12-20T05:38:49;9.0;71.8
78536;SHT31;67829;51.968;5.684;2023-12-20T05:41:18;9.0;71.8
78536;SHT31;67829;51.968;5.684;2023-12-20T05:43:48;9.0;71.9
78536;SHT31;67829;51.968;5.684;2023-12-20T05:46:17;9.1;71.7
78536;SHT31;67829;51.968;5.684;2023-12-20T05:48:45;9.1;71.6
78536;SHT31;67829;51.968;5.684;2023-12-20T05:51:15;9.1;72.0
78536;SHT31;67829;51.968;5.684;2023-12-20T05:53:44;9.1;72.1
78536;SHT31;67829;51.968;5.684;2023-12-20T05:56:13;9.1;71.9
78536;SHT31;67829;51.968;5.684;2023-12-20T05:58:41;9.1;71.6
78536;SHT31;67829;51.968;5.684;2023-12-20T06:01:10;9.1;72.1
78536;SHT31;67829;51.968;5.684;2023-12-20T06:03:41;9.1;71.7
78536;SHT31;67829;51.968;5.684;2023-12-20T06:06:10;9.1;71.6
78536;SHT31;67829;51.968;5.684;2023-12-20T06:08:40;9.2;71.7
78536;SHT31;67829;51.968;5.684;2023-12-20T06:11:09;9.2;71.6
78536;SHT31;67829;51.968;5.684;2023-12-20T06:13:39;9.2;71.6
78536;SHT31;67829;51.968;5.684;2023-12-20T06:16:08;9.2;71.7
78536;SHT31;67829;51.968;5.684;2023-12-20T06:18:36;9.2;71.7
78536;SHT31;67829;51.968;5.684;2023-12-20T06:21:05;9.2;71.4
78536;SHT31;67829;51.968;5.684;2023-12-20T06:23:39;9.2;71.3
78536;SHT31;67829;51.968;5.684;2023-12-20T06:26:07;9.2;71.5
78536;SHT31;67829;51.968;5.684;2023-12-20T06:28:36;9.2;71.2
78536;SHT31;67829;51.968;5.684;2023-12-20T06:31:05;9.2;71.4
78536;SHT31;67829;51.968;5.684;2023-12-20T06:33:35;9.2;71.3
78536;SHT31;67829;51.968;5.684;2023-12-20T06:36:07;9.3;70.8
78536;SHT31;67829;51.968;5.684;2023-12-20T06:38:35;9.3;71.0
78536;SHT31;67829;51.968;5.684;2023-12-20T06:41:05;9.3;70.6
78536;SHT31;67829;51.968;5.684;2023-12-20T06:43:34;9.3;70.9
78536;SHT31;67829;51.968;5.684;2023-12-20T06:46:03;9.3;70.5
78536;SHT31;67829;51.968;5.684;2023-12-20T06:48:32;9.3;70.6
78536;SHT31;67829;51.968;5.684;2023-12-20T06:51:02;9.3;70.5
78536;SHT31;67829;51.968;5.684;2023-12-20T06:53:31;9.3;70.8
78536;SHT31;67829;51.968;5.684;2023-12-20T06:55:59;9.3;70.9
78536;SHT31;67829;51.968;5.684;2023-12-20T06:58:29;9.3;70.7
78536;SHT31;67829;51.968;5.684;2023-12-20T07:00:57;9.3;70.2
78536;SHT31;67829;51.968;5.684;2023-12-20T07:03:26;9.3;70.7
78536;SHT31;67829;51.968;5.684;2023-12-20T07:05:54;9.3;70.3
78536;SHT31;67829;51.968;5.684;2023-12-20T07:08:22;9.3;70.3
78536;SHT31;67829;51.968;5.684;2023-12-20T07:10:51;9.3;70.2
78536;SHT31;67829;51.968;5.684;2023-12-20T07:13:19;9.3;70.3
78536;SHT31;67829;51.968;5.684;2023-12-20T07:15:48;9.3;70.4
78536;SHT31;67829;51.968;5.684;2023-12-20T07:18:17;9.3;70.1
78536;SHT31;67829;51.968;5.684;2023-12-20T07:20:46;9.3;70.6
78536;SHT31;67829;51.968;5.684;2023-12-20T07:23:14;9.3;70.4
78536;SHT31;67829;51.968;5.684;2023-12-20T07:25:43;9.3;70.6
78536;SHT31;67829;51.968;5.684;2023-12-20T07:28:11;9.3;70.6
78536;SHT31;67829;51.968;5.684;2023-12-20T07:30:39;9.3;70.6
78536;SHT31;67829;51.968;5.684;2023-12-20T07:33:08;9.3;70.7
78536;SHT31;67829;51.968;5.684;2023-12-20T07:35:38;9.3;71.0
78536;SHT31;67829;51.968;5.684;2023-12-20T07:38:07;9.3;70.8
78536;SHT31;67829;51.968;5.684;2023-12-20T07:40:35;9.3;71.1
78536;SHT31;67829;51.968;5.684;2023-12-20T07:43:05;9.3;71.0
78536;SHT31;67829;51.968;5.684;2023-12-20T07:45:34;9.3;71.0
78536;SHT31;67829;51.968;5.684;2023-12-20T07:48:03;9.3;71.3
78536;SHT31;67829;51.968;5.684;2023-12-20T07:50:32;9.3;71.0
78536;SHT31;67829;51.968;5.684;2023-12-20T07:53:01;9.3;71.3
78536;SHT31;67829;51.968;5.684;2023-12-20T07:55:30;9.3;71.1
78536;SHT31;67829;51.968;5.684;2023-12-20T07:57:59;9.3;71.3
78536;SHT31;67829;51.968;5.684;2023-12-20T08:00:29;9.3;71.3
78536;SHT31;67829;51.968;5.684;2023-12-20T08:02:57;9.3;71.3
78536;SHT31;67829;51.968;5.684;2023-12-20T08:05:26;9.3;71.3
78536;SHT31;67829;51.968;5.684;2023-12-20T08:07:54;9.3;71.3
78536;SHT31;67829;51.968;5.684;2023-12-20T08:10:23;9.4;71.3
78536;SHT31;67829;51.968;5.684;2023-12-20T08:12:51;9.4;71.3
78536;SHT31;67829;51.968;5.684;2023-12-20T08:15:20;9.4;70.9
78536;SHT31;67829;51.968;5.684;2023-12-20T08:17:48;9.4;70.9
78536;SHT31;67829;51.968;5.684;2023-12-20T08:20:17;9.4;70.8
78536;SHT31;67829;51.968;5.684;2023-12-20T08:22:46;9.4;70.9
78536;SHT31;67829;51.968;5.684;2023-12-20T08:25:14;9.4;70.8
78536;SHT31;67829;51.968;5.684;2023-12-20T08:27:43;9.4;70.8
78536;SHT31;67829;51.968;5.684;2023-12-20T08:30:12;9.5;70.8
78536;SHT31;67829;51.968;5.684;2023-12-20T08:32:40;9.5;70.7
78536;SHT31;67829;51.968;5.684;2023-12-20T08:35:09;9.5;70.6
78536;SHT31;67829;51.968;5.684;2023-12-20T08:37:37;9.5;70.8
78536;SHT31;67829;51.968;5.684;2023-12-20T08:40:07;9.5;70.7
78536;SHT31;67829;51.968;5.684;2023-12-20T08:42:36;9.5;70.5
78536;SHT31;67829;51.968;5.684;2023-12-20T08:45:06;9.5;70.7
78536;SHT31;67829;51.968;5.684;2023-12-20T08:47:35;9.5;70.8
78536;SHT31;67829;51.968;5.684;2023-12-20T08:50:04;9.6;70.7
78536;SHT31;67829;51.968;5.684;2023-12-20T08:52:32;9.6;70.8
78536;SHT31;67829;51.968;5.684;2023-12-20T08:55:01;9.6;70.9
78536;SHT31;67829;51.968;5.684;2023-12-20T08:57:29;9.6;71.2
78536;SHT31;67829;51.968;5.684;2023-12-20T08:59:58;9.6;70.9
78536;SHT31;67829;51.968;5.684;2023-12-20T09:02:27;9.6;71.1
78536;SHT31;67829;51.968;5.684;2023-12-20T09:04:55;9.6;71.1
78536;SHT31;67829;51.968;5.684;2023-12-20T09:07:25;9.6;70.9
78536;SHT31;67829;51.968;5.684;2023-12-20T09:09:57;9.7;71.5
78536;SHT31;67829;51.968;5.684;2023-12-20T09:12:26;9.7;72.0
78536;SHT31;67829;51.968;5.684;2023-12-20T09:14:57;9.7;72.1
78536;SHT31;67829;51.968;5.684;2023-12-20T09:17:28;9.7;72.2
78536;SHT31;67829;51.968;5.684;2023-12-20T09:19:59;9.7;72.2
78536;SHT31;67829;51.968;5.684;2023-12-20T09:22:28;9.7;72.5
78536;SHT31;67829;51.968;5.684;2023-12-20T09:24:57;9.7;72.5
78536;SHT31;67829;51.968;5.684;2023-12-20T09:27:25;9.7;72.9
78536;SHT31;67829;51.968;5.684;2023-12-20T09:29:54;9.7;72.9
78536;SHT31;67829;51.968;5.684;2023-12-20T09:32:22;9.7;73.1
78536;SHT31;67829;51.968;5.684;2023-12-20T09:34:53;9.7;73.0
78536;SHT31;67829;51.968;5.684;2023-12-20T09:37:21;9.7;73.1
78536;SHT31;67829;51.968;5.684;2023-12-20T09:39:50;9.7;73.3
78536;SHT31;67829;51.968;5.684;2023-12-20T09:42:28;9.7;73.3
78536;SHT31;67829;51.968;5.684;2023-12-20T09:45:01;9.7;73.3
78536;SHT31;67829;51.968;5.684;2023-12-20T09:47:30;9.7;73.2
78536;SHT31;67829;51.968;5.684;2023-12-20T09:49:59;9.7;73.3
78536;SHT31;67829;51.968;5.684;2023-12-20T09:52:28;9.7;72.9
78536;SHT31;67829;51.968;5.684;2023-12-20T09:54:58;9.7;73.2
78536;SHT31;67829;51.968;5.684;2023-12-20T09:57:28;9.7;73.3
78536;SHT31;67829;51.968;5.684;2023-12-20T09:59:56;9.7;73.2
78536;SHT31;67829;51.968;5.684;2023-12-20T10:02:26;9.8;72.9
78536;SHT31;67829;51.968;5.684;2023-12-20T10:04:56;9.8;72.8
78536;SHT31;67829;51.968;5.684;2023-12-20T10:07:26;9.8;72.8
78536;SHT31;67829;51.968;5.684;2023-12-20T10:09:55;9.8;72.8
78536;SHT31;67829;51.968;5.684;2023-12-20T10:12:24;9.8;72.7
78536;SHT31;67829;51.968;5.684;2023-12-20T10:14:52;9.8;72.4
78536;SHT31;67829;51.968;5.684;2023-12-20T10:17:23;9.9;71.8
78536;SHT31;67829;51.968;5.684;2023-12-20T10:19:55;9.9;71.9
78536;SHT31;67829;51.968;5.684;2023-12-20T10:22:24;9.9;72.1
78536;SHT31;67829;51.968;5.684;2023-12-20T10:24:53;9.9;71.9
78536;SHT31;67829;51.968;5.684;2023-12-20T10:27:21;9.9;71.8
78536;SHT31;67829;51.968;5.684;2023-12-20T10:29:49;9.9;71.9
78536;SHT31;67829;51.968;5.684;2023-12-20T10:32:25;10.0;71.9
78536;SHT31;67829;51.968;5.684;2023-12-20T10:34:55;10.0;72.0
78536;SHT31;67829;51.968;5.684;2023-12-20T10:37:25;10.0;72.0
78536;SHT31;67829;51.968;5.684;2023-12-20T10:39:55;10.0;71.8
78536;SHT31;67829;51.968;5.684;2023-12-20T10:42:26;10.0;72.0
78536;SHT31;67829;51.968;5.684;2023-12-20T10:44:55;10.0;72.2
78536;SHT31;67829;51.968;5.684;2023-12-20T10:47:25;10.1;72.0
78536;SHT31;67829;51.968;5.684;2023-12-20T10:49:54;10.1;72.1
78536;SHT31;67829;51.968;5.684;2023-12-20T10:52:25;10.1;71.9
78536;SHT31;67829;51.968;5.684;2023-12-20T10:54:57;10.1;72.0
78536;SHT31;67829;51.968;5.684;2023-12-20T10:57:27;10.1;72.0
78536;SHT31;67829;51.968;5.684;2023-12-20T11:00:01;10.1;71.8
78536;SHT31;67829;51.968;5.684;2023-12-20T11:02:33;10.2;71.7
78536;SHT31;67829;51.968;5.684;2023-12-20T11:05:13;10.2;71.6
78536;SHT31;67829;51.968;5.684;2023-12-20T11:07:49;10.2;71.5
78536;SHT31;67829;51.968;5.684;2023-12-20T11:10:23;10.3;71.5
78536;SHT31;67829;51.968;5.684;2023-12-20T11:12:57;10.3;71.1
78536;SHT31;67829;51.968;5.684;2023-12-20T11:15:30;10.3;71.1
78536;SHT31;67829;51.968;5.684;2023-12-20T11:17:59;10.3;71.1
78536;SHT31;67829;51.968;5.684;2023-12-20T11:20:36;10.4;70.8
78536;SHT31;67829;51.968;5.684;2023-12-20T11:23:06;10.4;71.1
78536;SHT31;67829;51.968;5.684;2023-12-20T11:25:48;10.4;71.0
78536;SHT31;67829;51.968;5.684;2023-12-20T11:28:21;10.5;70.8
78536;SHT31;67829;51.968;5.684;2023-12-20T11:30:53;10.5;70.2
78536;SHT31;67829;51.968;5.684;2023-12-20T11:33:25;10.5;69.9
78536;SHT31;67829;51.968;5.684;2023-12-20T11:35:58;10.6;69.7
78536;SHT31;67829;51.968;5.684;2023-12-20T11:38:37;10.6;69.2
78536;SHT31;67829;51.968;5.684;2023-12-20T11:41:09;10.6;68.9
78536;SHT31;67829;51.968;5.684;2023-12-20T11:43:39;10.7;69.1
78536;SHT31;67829;51.968;5.684;2023-12-20T11:46:09;10.7;69.0
78536;SHT31;67829;51.968;5.684;2023-12-20T11:48:39;10.7;68.5
78536;SHT31;67829;51.968;5.684;2023-12-20T11:51:11;10.7;68.9
78536;SHT31;67829;51.968;5.684;2023-12-20T11:53:40;10.8;68.5
78536;SHT31;67829;51.968;5.684;2023-12-20T11:56:12;10.8;68.3
78536;SHT31;67829;51.968;5.684;2023-12-20T11:58:41;10.9;67.5
78536;SHT31;67829;51.968;5.684;2023-12-20T12:01:10;10.9;67.3
78536;SHT31;67829;51.968;5.684;2023-12-20T12:03:38;10.9;67.0
78536;SHT31;67829;51.968;5.684;2023-12-20T12:06:07;11.0;66.8
78536;SHT31;67829;51.968;5.684;2023-12-20T12:08:36;11.0;67.2
78536;SHT31;67829;51.968;5.684;2023-12-20T12:11:06;11.0;67.4
78536;SHT31;67829;51.968;5.684;2023-12-20T12:13:34;11.0;67.4
78536;SHT31;67829;51.968;5.684;2023-12-20T12:16:04;11.1;67.7
78536;SHT31;67829;51.968;5.684;2023-12-20T12:18:33;11.1;67.9
78536;SHT31;67829;51.968;5.684;2023-12-20T12:21:02;11.1;68.0
78536;SHT31;67829;51.968;5.684;2023-12-20T12:23:31;11.2;68.2
78536;SHT31;67829;51.968;5.684;2023-12-20T12:25:59;11.2;67.6
78536;SHT31;67829;51.968;5.684;2023-12-20T12:28:28;11.2;67.9
78536;SHT31;67829;51.968;5.684;2023-12-20T12:30:59;11.2;67.7
78536;SHT31;67829;51.968;5.684;2023-12-20T12:33:28;11.2;67.7
78536;SHT31;67829;51.968;5.684;2023-12-20T12:35:58;11.3;67.6
78536;SHT31;67829;51.968;5.684;2023-12-20T12:38:26;11.3;67.2
78536;SHT31;67829;51.968;5.684;2023-12-20T12:40:56;11.3;67.3
78536;SHT31;67829;51.968;5.684;2023-12-20T12:43:25;11.3;67.8
78536;SHT31;67829;51.968;5.684;2023-12-20T12:45:54;11.3;67.9
78536;SHT31;67829;51.968;5.684;2023-12-20T12:48:23;11.3;67.8
78536;SHT31;67829;51.968;5.684;2023-12-20T12:50:51;11.3;68.3
78536;SHT31;67829;51.968;5.684;2023-12-20T12:53:20;11.3;68.3
78536;SHT31;67829;51.968;5.684;2023-12-20T12:55:49;11.3;68.6
78536;SHT31;67829;51.968;5.684;2023-12-20T12:58:18;11.3;68.6
78536;SHT31;67829;51.968;5.684;2023-12-20T13:00:47;11.3;68.6
78536;SHT31;67829;51.968;5.684;2023-12-20T13:03:15;11.3;68.4
78536;SHT31;67829;51.968;5.684;2023-12-20T13:05:44;11.3;68.2
78536;SHT31;67829;51.968;5.684;2023-12-20T13:08:14;11.3;68.3
78536;SHT31;67829;51.968;5.684;2023-12-20T13:10:43;11.3;68.5
78536;SHT31;67829;51.968;5.684;2023-12-20T13:13:11;11.3;68.3
78536;SHT31;67829;51.968;5.684;2023-12-20T13:15:40;11.3;68.2
78536;SHT31;67829;51.968;5.684;2023-12-20T13:18:08;11.3;68.0
78536;SHT31;67829;51.968;5.684;2023-12-20T13:20:37;11.3;68.1
78536;SHT31;67829;51.968;5.684;2023-12-20T13:23:07;11.3;67.3
78536;SHT31;67829;51.968;5.684;2023-12-20T13:25:36;11.4;67.3
78536;SHT31;67829;51.968;5.684;2023-12-20T13:28:05;11.4;67.2
78536;SHT31;67829;51.968;5.684;2023-12-20T13:30:34;11.4;67.3
78536;SHT31;67829;51.968;5.684;2023-12-20T13:33:03;11.4;67.2
78536;SHT31;67829;51.968;5.684;2023-12-20T13:35:33;11.4;67.2
78536;SHT31;67829;51.968;5.684;2023-12-20T13:38:02;11.3;67.1
78536;SHT31;67829;51.968;5.684;2023-12-20T13:40:32;11.3;67.2
78536;SHT31;67829;51.968;5.684;2023-12-20T13:43:01;11.3;66.7
78536;SHT31;67829;51.968;5.684;2023-12-20T13:45:30;11.3;67.0
78536;SHT31;67829;51.968;5.684;2023-12-20T13:47:59;11.3;66.8
78536;SHT31;67829;51.968;5.684;2023-12-20T13:50:27;11.3;66.4
78536;SHT31;67829;51.968;5.684;2023-12-20T13:52:56;11.3;66.5
78536;SHT31;67829;51.968;5.684;2023-12-20T13:55:24;11.3;66.3
78536;SHT31;67829;51.968;5.684;2023-12-20T13:57:54;11.3;66.8
78536;SHT31;67829;51.968;5.684;2023-12-20T14:00:22;11.3;66.6
78536;SHT31;67829;51.968;5.684;2023-12-20T14:02:53;11.3;66.7
78536;SHT31;67829;51.968;5.684;2023-12-20T14:05:23;11.3;66.5
78536;SHT31;67829;51.968;5.684;2023-12-20T14:07:53;11.3;66.9
78536;SHT31;67829;51.968;5.684;2023-12-20T14:10:24;11.3;66.6
78536;SHT31;67829;51.968;5.684;2023-12-20T14:12:54;11.3;66.5
78536;SHT31;67829;51.968;5.684;2023-12-20T14:15:22;11.3;66.4
78536;SHT31;67829;51.968;5.684;2023-12-20T14:17:51;11.3;66.8
78536;SHT31;67829;51.968;5.684;2023-12-20T14:20:21;11.3;66.6
78536;SHT31;67829;51.968;5.684;2023-12-20T14:22:49;11.3;66.6
78536;SHT31;67829;51.968;5.684;2023-12-20T14:25:18;11.3;66.7
78536;SHT31;67829;51.968;5.684;2023-12-20T14:27:47;11.3;66.4
78536;SHT31;67829;51.968;5.684;2023-12-20T14:30:15;11.3;66.7
78536;SHT31;67829;51.968;5.684;2023-12-20T14:32:44;11.3;66.5
78536;SHT31;67829;51.968;5.684;2023-12-20T14:35:14;11.3;66.5
78536;SHT31;67829;51.968;5.684;2023-12-20T14:37:44;11.3;66.7
78536;SHT31;67829;51.968;5.684;2023-12-20T14:40:13;11.3;66.9
78536;SHT31;67829;51.968;5.684;2023-12-20T14:42:44;11.3;67.0
78536;SHT31;67829;51.968;5.684;2023-12-20T14:45:14;11.3;66.8
78536;SHT31;67829;51.968;5.684;2023-12-20T14:47:44;11.3;67.0
78536;SHT31;67829;51.968;5.684;2023-12-20T14:50:14;11.3;66.8
78536;SHT31;67829;51.968;5.684;2023-12-20T14:52:45;11.3;67.3
78536;SHT31;67829;51.968;5.684;2023-12-20T14:55:14;11.3;67.0
78536;SHT31;67829;51.968;5.684;2023-12-20T14:57:43;11.3;66.9
78536;SHT31;67829;51.968;5.684;2023-12-20T15:00:12;11.3;66.9
78536;SHT31;67829;51.968;5.684;2023-12-20T15:02:43;11.3;67.2
78536;SHT31;67829;51.968;5.684;2023-12-20T15:05:12;11.3;67.0
78536;SHT31;67829;51.968;5.684;2023-12-20T15:07:40;11.3;67.0
78536;SHT31;67829;51.968;5.684;2023-12-20T15:10:10;11.3;67.3
78536;SHT31;67829;51.968;5.684;2023-12-20T15:12:38;11.3;67.5
78536;SHT31;67829;51.968;5.684;2023-12-20T15:15:08;11.3;67.9
78536;SHT31;67829;51.968;5.684;2023-12-20T15:17:37;11.3;67.9
78536;SHT31;67829;51.968;5.684;2023-12-20T15:20:06;11.3;68.3
78536;SHT31;67829;51.968;5.684;2023-12-20T15:22:38;11.3;68.0
78536;SHT31;67829;51.968;5.684;2023-12-20T15:25:09;11.3;68.0
78536;SHT31;67829;51.968;5.684;2023-12-20T15:27:43;11.3;68.2
78536;SHT31;67829;51.968;5.684;2023-12-20T15:30:15;11.3;68.0
78536;SHT31;67829;51.968;5.684;2023-12-20T15:32:44;11.2;68.2
78536;SHT31;67829;51.968;5.684;2023-12-20T15:35:13;11.2;68.4
78536;SHT31;67829;51.968;5.684;2023-12-20T15:37:41;11.2;68.6
78536;SHT31;67829;51.968;5.684;2023-12-20T15:40:13;11.2;68.6
78536;SHT31;67829;51.968;5.684;2023-12-20T15:42:41;11.2;69.0
78536;SHT31;67829;51.968;5.684;2023-12-20T15:45:10;11.2;69.1
78536;SHT31;67829;51.968;5.684;2023-12-20T15:47:39;11.2;69.6
78536;SHT31;67829;51.968;5.684;2023-12-20T15:50:09;11.2;69.8
78536;SHT31;67829;51.968;5.684;2023-12-20T15:52:39;11.2;70.2
78536;SHT31;67829;51.968;5.684;2023-12-20T15:55:10;11.1;70.5
78536;SHT31;67829;51.968;5.684;2023-12-20T15:57:38;11.1;70.4
78536;SHT31;67829;51.968;5.684;2023-12-20T16:00:09;11.1;70.2
78536;SHT31;67829;51.968;5.684;2023-12-20T16:02:38;11.1;70.6
78536;SHT31;67829;51.968;5.684;2023-12-20T16:05:07;11.1;70.8
78536;SHT31;67829;51.968;5.684;2023-12-20T16:07:35;11.1;71.3
78536;SHT31;67829;51.968;5.684;2023-12-20T16:10:04;11.1;71.3
78536;SHT31;67829;51.968;5.684;2023-12-20T16:12:33;11.1;71.3
78536;SHT31;67829;51.968;5.684;2023-12-20T16:15:02;11.1;71.7
78536;SHT31;67829;51.968;5.684;2023-12-20T16:17:30;11.1;71.5
78536;SHT31;67829;51.968;5.684;2023-12-20T16:20:00;11.0;71.7
78536;SHT31;67829;51.968;5.684;2023-12-20T16:22:29;11.0;71.5
78536;SHT31;67829;51.968;5.684;2023-12-20T16:24:58;11.0;72.0